Time;durP1;ratioP1;P1;durP2;ratioP2;P2;SDS_P1;SDS_P2;PMS_P1;PMS_P2;Temp;Humidity;BMP_temperature;BMP_pressure;BME280_temperature;BME280_humidity;BME280_pressure;Samples;Min_cycle;Max_cycle;Signal;HPM_P1;HPM_P2
2022/01/23 00:02:09;;;;;;;;;;;3.30;99.90;;;;;;5005325;28;20034;-76
2022/01/23 00:04:35;;;;;;;31.67;24.23;;;3.20;99.90;;;;;;5006808;28;20283;-76
2022/01/23 00:07:03;;;;;;;29.52;23.65;;;3.20;99.90;;;;;;5004206;28;20022;-77
2022/01/23 00:09:29;;;;;;;29.52;22.17;;;3.20;99.90;;;;;;5006412;28;20053;-76
2022/01/23 00:11:55;;;;;;;33.70;24.13;;;3.30;99.90;;;;;;5005911;28;20484;-76
2022/01/23 00:19:39;;;;;;;33.78;25.90;;;3.20;99.90;;;;;;5023507;28;20468;-76
2022/01/23 00:22:05;;;;;;;31.45;24.83;;;3.10;99.90;;;;;;5004825;28;20041;-76
2022/01/23 00:32:43;;;;;;;39.08;27.63;;;3.20;99.90;;;;;;5022382;28;20032;-76
2022/01/23 00:35:08;;;;;;;35.47;26.55;;;3.20;99.90;;;;;;5022988;28;20619;-76
2022/01/23 00:37:34;;;;;;;35.00;26.45;;;3.30;99.90;;;;;;5007544;28;20022;-76
2022/01/23 00:39:59;;;;;;;39.50;27.98;;;3.30;99.90;;;;;;5021269;28;20395;-76
2022/01/23 00:42:25;;;;;;;39.63;28.50;;;3.20;99.90;;;;;;5013694;28;20129;-76
2022/01/23 00:44:57;;;;;;;41.72;30.08;;;3.30;99.90;;;;;;5006405;28;20021;-78
2022/01/23 00:47:23;;;;;;;47.17;32.22;;;3.30;99.90;;;;;;5023477;28;20072;-77
2022/01/23 00:49:48;;;;;;;34.15;25.58;;;3.20;99.90;;;;;;5008735;28;20013;-77
2022/01/23 00:52:17;;;;;;;37.00;25.92;;;3.20;99.90;;;;;;5002565;28;20018;-77
2022/01/23 00:54:42;;;;;;;37.63;27.33;;;3.20;99.90;;;;;;5024361;28;20060;-77
2022/01/23 00:57:08;;;;;;;38.75;28.88;;;3.30;99.90;;;;;;5023633;28;20026;-80
2022/01/23 00:59:33;;;;;;;35.72;26.42;;;3.20;99.90;;;;;;5023098;28;20029;-78
2022/01/23 01:01:59;;;;;;;36.35;26.10;;;3.10;99.90;;;;;;5005917;28;20030;-77
2022/01/23 01:04:24;;;;;;;37.13;26.55;;;3.10;99.90;;;;;;5002418;28;20475;-77
2022/01/23 01:06:50;;;;;;;36.60;27.15;;;3.30;99.90;;;;;;5025904;28;20018;-79
2022/01/23 01:09:16;;;;;;;33.08;24.08;;;3.20;99.90;;;;;;4985500;28;20062;-77
2022/01/23 01:11:57;;;;;;;23.23;17.25;;;3.20;99.90;;;;;;5005787;28;20026;-77
2022/01/23 01:17:25;;;;;;;23.33;19.33;;;3.20;99.90;;;;;;5000715;28;20392;-77
2022/01/23 01:33:38;;;;;;;26.65;19.20;;;3.20;99.90;;;;;;5000161;28;20026;-75
2022/01/23 01:38:49;;;;;;;25.20;19.10;;;3.30;99.90;;;;;;5007012;28;20064;-75
2022/01/23 01:41:18;;;;;;;25.25;19.25;;;3.20;99.90;;;;;;5009014;28;20444;-74
2022/01/23 01:43:45;;;;;;;24.55;17.67;;;3.30;99.90;;;;;;4991651;28;20028;-74
2022/01/23 01:46:11;;;;;;;24.30;19.00;;;3.40;99.90;;;;;;5002728;28;20064;-74
2022/01/23 01:48:37;;;;;;;25.77;19.48;;;3.40;99.90;;;;;;4984800;28;20022;-75
2022/01/23 01:51:06;;;;;;;30.02;21.20;;;3.30;99.90;;;;;;5008314;28;20028;-74
2022/01/23 01:53:31;;;;;;;29.17;22.27;;;3.40;99.90;;;;;;5008995;28;20022;-75
2022/01/23 01:55:58;;;;;;;26.55;18.92;;;3.30;99.90;;;;;;4985699;28;20113;-77
2022/01/23 02:09:37;;;;;;;26.90;21.48;;;3.30;99.90;;;;;;5006268;28;20072;-76
2022/01/23 02:18:27;;;;;;;29.10;20.58;;;3.30;99.90;;;;;;5007285;28;20034;-77
2022/01/23 02:55:26;;;;;;;38.45;24.35;;;2.80;99.90;;;;;;5001416;28;20018;-77
2022/01/23 02:57:57;;;;;;;30.42;21.50;;;2.80;99.90;;;;;;4987193;28;20022;-77
2022/01/23 03:00:33;;;;;;;36.88;25.52;;;2.80;99.90;;;;;;4990470;28;20053;-76
2022/01/23 03:03:06;;;;;;;33.45;24.58;;;3.00;99.90;;;;;;5006051;28;20056;-75
2022/01/23 03:10:46;;;;;;;42.38;29.85;;;3.10;99.90;;;;;;5002444;28;20044;-77
2022/01/23 03:26:38;;;;;;;38.72;24.40;;;3.00;99.90;;;;;;5001298;28;20495;-77
2022/01/23 03:31:39;;;;;;;52.10;28.05;;;3.00;99.90;;;;;;5012255;28;20022;-76
2022/01/23 03:34:05;;;;;;;44.83;27.58;;;3.00;99.90;;;;;;5000629;28;20026;-76
2022/01/23 03:36:31;;;;;;;35.17;23.98;;;2.90;99.90;;;;;;4982896;28;20034;-76
2022/01/23 03:38:56;;;;;;;40.45;24.48;;;2.90;99.90;;;;;;5000367;28;20041;-77
2022/01/23 03:41:22;;;;;;;32.95;22.30;;;2.90;99.90;;;;;;4983526;28;20022;-77
2022/01/23 03:43:48;;;;;;;36.70;23.45;;;2.90;99.90;;;;;;4982851;28;20026;-76
2022/01/23 03:51:42;;;;;;;36.78;22.58;;;2.90;99.90;;;;;;5005550;28;20396;-76
2022/01/23 03:54:07;;;;;;;42.00;24.67;;;2.90;99.90;;;;;;5000141;28;20030;-76
2022/01/23 03:56:33;;;;;;;35.95;22.92;;;3.00;99.90;;;;;;4984020;28;20026;-77
2022/01/23 03:58:58;;;;;;;32.35;22.35;;;3.00;99.90;;;;;;4998389;28;20044;-76
2022/01/23 04:01:25;;;;;;;34.47;22.75;;;3.10;99.90;;;;;;5012085;28;20030;-77
2022/01/23 04:03:53;;;;;;;36.97;24.05;;;3.10;99.90;;;;;;5006041;28;20113;-77
2022/01/23 04:06:19;;;;;;;44.35;27.00;;;3.10;99.90;;;;;;5012761;28;20017;-76
2022/01/23 04:08:44;;;;;;;41.28;25.67;;;3.00;99.90;;;;;;5012860;28;20049;-76
2022/01/23 04:11:10;;;;;;;33.03;22.60;;;3.00;99.90;;;;;;5000820;28;20026;-77
2022/01/23 04:13:56;;;;;;;35.10;22.60;;;3.00;99.90;;;;;;5006471;28;20054;-76
2022/01/23 04:35:19;;;;;;;40.13;25.67;;;2.90;99.90;;;;;;5004692;28;20058;-75
2022/01/23 04:46:17;;;;;;;47.25;26.27;;;2.70;99.90;;;;;;4999357;28;20052;-76
2022/01/23 04:59:46;;;;;;;44.35;26.77;;;2.80;99.90;;;;;;5003644;28;20036;-75
2022/01/23 05:04:44;;;;;;;36.63;23.33;;;2.90;99.90;;;;;;5012178;28;20468;-76
2022/01/23 05:07:10;;;;;;;37.45;23.40;;;2.90;99.90;;;;;;4998898;28;20022;-77
2022/01/23 05:09:36;;;;;;;42.38;25.38;;;3.00;99.90;;;;;;4999023;28;20022;-76
2022/01/23 05:12:05;;;;;;;44.75;26.90;;;3.10;99.90;;;;;;4998505;28;20018;-76
2022/01/23 05:14:35;;;;;;;40.35;25.20;;;3.00;99.90;;;;;;4994246;28;20025;-76
2022/01/23 05:17:02;;;;;;;43.30;26.13;;;3.00;99.90;;;;;;4999951;28;20109;-77
2022/01/23 05:19:28;;;;;;;38.35;25.80;;;2.90;99.90;;;;;;4981848;28;20022;-77
2022/01/23 05:22:18;;;;;;;45.15;27.58;;;3.10;99.90;;;;;;5011743;28;20026;-77
2022/01/23 05:24:44;;;;;;;47.38;27.98;;;3.10;99.90;;;;;;4998075;28;20376;-77
2022/01/23 05:27:10;;;;;;;49.28;28.33;;;3.00;99.90;;;;;;4983444;28;20045;-76
2022/01/23 05:29:37;;;;;;;51.92;29.10;;;3.10;99.90;;;;;;4987900;28;20437;-77
2022/01/23 05:32:04;;;;;;;55.97;29.95;;;3.10;99.90;;;;;;5003244;28;20034;-76
2022/01/23 05:34:30;;;;;;;57.35;30.63;;;3.00;99.90;;;;;;4998406;28;20026;-76
2022/01/23 05:36:55;;;;;;;57.15;32.13;;;3.00;99.90;;;;;;5000697;28;20026;-76
2022/01/23 05:39:24;;;;;;;44.28;27.77;;;3.00;99.90;;;;;;5008818;28;20116;-76
2022/01/23 05:41:54;;;;;;;50.15;30.27;;;3.00;99.90;;;;;;5011380;28;20076;-76
2022/01/23 05:44:20;;;;;;;37.75;23.90;;;3.00;99.90;;;;;;5002568;28;20443;-77
2022/01/23 05:46:46;;;;;;;62.78;33.33;;;3.00;99.90;;;;;;5012668;28;20034;-76
2022/01/23 05:49:11;;;;;;;51.50;30.05;;;3.00;99.90;;;;;;4991774;28;20511;-76
2022/01/23 05:51:37;;;;;;;44.15;26.67;;;3.00;99.90;;;;;;5006158;28;20022;-76
2022/01/23 05:54:03;;;;;;;64.28;31.85;;;3.00;99.90;;;;;;4993314;28;20035;-75
2022/01/23 05:56:28;;;;;;;62.35;30.80;;;2.90;99.90;;;;;;4985989;28;20030;-76
2022/01/23 05:58:54;;;;;;;46.80;27.65;;;3.00;99.90;;;;;;4981149;28;20082;-76
2022/01/23 06:01:20;;;;;;;45.40;27.30;;;3.20;99.90;;;;;;4993770;28;20112;-76
2022/01/23 06:03:46;;;;;;;49.15;28.10;;;3.00;99.90;;;;;;4998162;28;20080;-78
2022/01/23 06:06:11;;;;;;;48.60;28.85;;;3.00;99.90;;;;;;5000083;28;20421;-77
2022/01/23 06:08:37;;;;;;;51.65;29.30;;;3.00;99.90;;;;;;4987315;28;20073;-77
2022/01/23 06:11:02;;;;;;;54.88;28.80;;;3.00;99.90;;;;;;4985398;28;20492;-78
2022/01/23 06:13:28;;;;;;;64.10;31.42;;;3.00;99.90;;;;;;4980919;28;20029;-78
2022/01/23 06:15:54;;;;;;;65.03;33.40;;;3.10;99.90;;;;;;4982610;28;20045;-77
2022/01/23 06:18:20;;;;;;;54.85;31.40;;;2.90;99.90;;;;;;5005042;28;20027;-78
2022/01/23 06:20:46;;;;;;;61.75;32.67;;;2.90;99.90;;;;;;5002707;28;20037;-77
2022/01/23 06:23:12;;;;;;;86.53;39.15;;;3.00;99.90;;;;;;4998175;28;20396;-77
2022/01/23 06:25:45;;;;;;;66.10;32.25;;;2.80;99.90;;;;;;5004295;28;20026;-79
2022/01/23 06:28:14;;;;;;;69.13;34.33;;;2.80;99.90;;;;;;5009253;28;20019;-76
2022/01/23 06:30:40;;;;;;;80.70;34.47;;;2.60;99.90;;;;;;5007434;28;20578;-77
2022/01/23 06:33:06;;;;;;;78.05;32.78;;;2.70;99.90;;;;;;5002652;28;20028;-78
2022/01/23 06:35:32;;;;;;;77.00;32.38;;;;;;;;;;5005608;28;20022;-77
2022/01/23 06:37:58;;;;;;;95.88;35.85;;;2.70;99.90;;;;;;5014506;28;20042;-78
2022/01/23 06:40:23;;;;;;;72.18;30.55;;;2.70;99.90;;;;;;5016508;28;20476;-78
2022/01/23 06:42:49;;;;;;;66.53;32.15;;;2.70;99.90;;;;;;5016347;28;20053;-77
2022/01/23 06:45:15;;;;;;;58.72;28.50;;;2.70;99.90;;;;;;4986298;28;20126;-77
2022/01/23 06:47:40;;;;;;;63.63;30.92;;;2.70;99.90;;;;;;5009496;28;20113;-77
2022/01/23 06:50:06;;;;;;;56.35;29.50;;;2.80;99.90;;;;;;4991387;28;20054;-78
2022/01/23 06:52:32;;;;;;;65.97;32.22;;;2.90;99.90;;;;;;5002700;28;20026;-77
2022/01/23 06:54:58;;;;;;;47.13;27.50;;;2.90;99.90;;;;;;5003383;28;20041;-78
2022/01/23 06:57:23;;;;;;;56.97;30.48;;;2.90;99.90;;;;;;5008619;28;20023;-78
2022/01/23 06:59:49;;;;;;;59.88;31.98;;;3.00;99.90;;;;;;5011388;28;20034;-77
2022/01/23 07:02:14;;;;;;;56.08;30.60;;;2.90;99.90;;;;;;5001289;28;20033;-78
2022/01/23 07:04:40;;;;;;;67.00;32.97;;;3.00;99.90;;;;;;4985230;28;20054;-77
2022/01/23 07:07:07;;;;;;;53.13;27.77;;;1.30;99.90;;;;;;4990978;28;20179;-78
2022/01/23 07:09:32;;;;;;;54.58;29.98;;;2.90;99.90;;;;;;4989457;28;20060;-78
2022/01/23 07:11:58;;;;;;;42.42;26.15;;;2.90;99.90;;;;;;5001253;28;20053;-78
2022/01/23 07:14:23;;;;;;;55.75;28.83;;;3.00;99.90;;;;;;5003085;28;20034;-77
2022/01/23 07:16:49;;;;;;;45.08;27.08;;;3.00;99.90;;;;;;4990935;28;20026;-77
2022/01/23 07:19:15;;;;;;;41.78;25.27;;;3.00;99.90;;;;;;4988696;28;20022;-77
2022/01/23 07:21:40;;;;;;;48.90;27.65;;;3.00;99.90;;;;;;5000351;28;20029;-76
2022/01/23 07:24:06;;;;;;;48.33;27.40;;;3.00;99.90;;;;;;5001849;28;20034;-75
2022/01/23 07:26:33;;;;;;;45.97;26.98;;;3.00;99.90;;;;;;4995073;28;20026;-76
2022/01/23 07:29:01;;;;;;;43.67;25.90;;;3.00;99.90;;;;;;5013654;28;20026;-77
2022/01/23 07:34:00;;;;;;;47.67;27.90;;;3.10;99.90;;;;;;5001079;28;20121;-78
2022/01/23 07:36:26;;;;;;;47.90;31.30;;;3.10;99.90;;;;;;4999424;28;20049;-78
2022/01/23 07:38:52;;;;;;;50.20;30.85;;;3.10;99.90;;;;;;4995507;28;20124;-78
2022/01/23 07:41:18;;;;;;;51.47;32.88;;;3.10;99.90;;;;;;5000420;28;20097;-78
2022/01/23 07:43:43;;;;;;;47.78;29.70;;;3.10;99.90;;;;;;4995117;28;20049;-78
2022/01/23 07:46:09;;;;;;;52.20;29.77;;;3.10;99.90;;;;;;5000359;28;20026;-78
2022/01/23 07:48:34;;;;;;;53.42;30.60;;;3.10;99.90;;;;;;5000042;28;20033;-74
2022/01/23 07:51:00;;;;;;;50.55;28.27;;;3.20;99.90;;;;;;5000081;28;20018;-77
2022/01/23 07:53:25;;;;;;;51.58;30.00;;;3.20;99.90;;;;;;5004740;28;20034;-76
2022/01/23 07:55:51;;;;;;;59.95;29.85;;;3.10;99.90;;;;;;5008121;28;20373;-76
2022/01/23 07:58:16;;;;;;;47.92;26.52;;;3.20;99.90;;;;;;5008191;28;20057;-76
2022/01/23 08:00:42;;;;;;;53.95;28.75;;;3.30;99.90;;;;;;4991855;28;20480;-76
2022/01/23 08:03:08;;;;;;;60.25;31.55;;;3.30;99.90;;;;;;5009751;28;20033;-76
2022/01/23 08:05:34;;;;;;;50.88;29.15;;;3.20;99.90;;;;;;5009712;28;20021;-76
2022/01/23 08:08:00;;;;;;;48.60;28.27;;;3.20;99.90;;;;;;4985664;28;20014;-76
2022/01/23 08:10:26;;;;;;;46.30;28.50;;;3.30;99.90;;;;;;4996077;28;20073;-77
2022/01/23 08:12:51;;;;;;;45.08;27.77;;;3.20;99.90;;;;;;5005532;28;20026;-76
2022/01/23 08:15:18;;;;;;;46.28;27.15;;;3.30;99.90;;;;;;5009736;28;20026;-77
2022/01/23 08:17:44;;;;;;;41.45;25.80;;;3.40;99.90;;;;;;4993682;28;20033;-76
2022/01/23 08:20:11;;;;;;;48.20;30.00;;;3.40;99.90;;;;;;5006639;28;20475;-76
2022/01/23 08:22:36;;;;;;;43.53;26.23;;;3.30;99.90;;;;;;5008389;28;20131;-76
2022/01/23 08:25:03;;;;;;;41.65;26.30;;;3.30;99.90;;;;;;4982025;28;20121;-76
2022/01/23 08:27:29;;;;;;;38.13;25.92;;;3.40;99.90;;;;;;5007041;28;20105;-76
2022/01/23 08:29:55;;;;;;;41.42;25.15;;;3.40;99.90;;;;;;5006317;28;20393;-76
2022/01/23 08:32:22;;;;;;;35.60;22.05;;;3.40;99.90;;;;;;4978123;28;20030;-76
2022/01/23 08:34:47;;;;;;;36.00;22.85;;;3.30;99.90;;;;;;4999427;28;20034;-76
2022/01/23 08:37:13;;;;;;;29.27;19.73;;;3.30;99.90;;;;;;4994734;28;20109;-76
2022/01/23 08:39:40;;;;;;;31.52;19.63;;;3.30;99.90;;;;;;5004497;28;20056;-76
2022/01/23 08:42:09;;;;;;;31.40;21.65;;;3.30;99.90;;;;;;4986839;28;20026;-76
2022/01/23 08:44:35;;;;;;;33.22;21.17;;;3.30;99.90;;;;;;4999435;28;20084;-76
2022/01/23 08:47:02;;;;;;;34.70;21.83;;;3.30;99.90;;;;;;4996559;28;20026;-76
2022/01/23 08:49:29;;;;;;;27.30;19.17;;;3.40;99.90;;;;;;5010270;28;20133;-76
2022/01/23 08:51:56;;;;;;;31.85;20.02;;;3.40;99.90;;;;;;5007955;28;20377;-76
2022/01/23 08:54:22;;;;;;;28.88;18.95;;;3.40;99.90;;;;;;5007652;28;20030;-76
2022/01/23 08:56:48;;;;;;;24.33;16.88;;;3.40;99.90;;;;;;5003655;28;20030;-76
2022/01/23 08:59:14;;;;;;;26.88;18.25;;;3.30;99.90;;;;;;4993191;28;20033;-76
2022/01/23 09:01:40;;;;;;;28.45;18.13;;;3.50;99.90;;;;;;4979631;28;20134;-76
2022/01/23 09:04:06;;;;;;;23.13;17.23;;;3.60;99.90;;;;;;4993589;28;20447;-76
2022/01/23 09:06:32;;;;;;;23.55;17.02;;;3.60;99.90;;;;;;4998640;28;20022;-76
2022/01/23 09:09:00;;;;;;;24.13;17.83;;;3.50;99.90;;;;;;4987159;28;20073;-76
2022/01/23 09:11:40;;;;;;;25.60;18.35;;;3.40;99.90;;;;;;5005304;28;20028;-76
2022/01/23 09:14:06;;;;;;;24.48;17.38;;;3.70;99.90;;;;;;4984023;28;20508;-76
2022/01/23 09:16:43;;;;;;;31.45;23.05;;;3.60;99.90;;;;;;4991113;28;20034;-77
2022/01/23 09:19:10;;;;;;;99.18;88.40;;;3.50;99.90;;;;;;5001796;28;20034;-76
2022/01/23 09:21:37;;;;;;;47.92;39.85;;;3.60;99.90;;;;;;4981412;28;20026;-77
2022/01/23 09:24:04;;;;;;;25.80;18.35;;;3.70;99.90;;;;;;5002590;28;20034;-77
2022/01/23 09:26:30;;;;;;;20.33;15.93;;;3.60;99.90;;;;;;5007337;28;20030;-78
2022/01/23 09:28:59;;;;;;;22.42;18.98;;;3.70;99.90;;;;;;5004771;28;20033;-77
2022/01/23 09:31:44;;;;;;;24.83;16.05;;;3.80;99.90;;;;;;5008600;28;20018;-78
2022/01/23 09:34:11;;;;;;;20.50;14.37;;;3.90;99.90;;;;;;5007167;28;20021;-78
2022/01/23 09:36:37;;;;;;;19.42;13.45;;;3.90;99.90;;;;;;5000517;28;20030;-77
2022/01/23 09:39:04;;;;;;;19.05;13.18;;;4.00;99.90;;;;;;4999070;28;20046;-77
2022/01/23 09:41:31;;;;;;;17.55;13.77;;;4.10;99.90;;;;;;5000551;28;20026;-77
2022/01/23 09:44:00;;;;;;;17.60;13.32;;;4.10;99.90;;;;;;5013093;28;20030;-77
2022/01/23 09:46:26;;;;;;;297.98;279.13;;;;;;;;;;4986837;28;20029;-76
2022/01/23 09:48:52;;;;;;;15.73;11.20;;;;;;;;;;4988501;28;20026;-77
2022/01/23 09:51:24;;;;;;;21.35;11.95;;;4.20;99.90;;;;;;4986502;28;20073;-78
2022/01/23 09:53:54;;;;;;;14.00;11.02;;;4.20;99.90;;;;;;4982968;28;20056;-77
2022/01/23 09:56:26;;;;;;;14.90;10.55;;;;;;;;;;5004050;28;20105;-77
2022/01/23 09:58:53;;;;;;;13.63;10.75;;;4.20;99.90;;;;;;4997912;28;20025;-77
2022/01/23 10:01:20;;;;;;;15.63;10.77;;;;;;;;;;5004220;28;20022;-77
2022/01/23 10:03:46;;;;;;;16.25;10.40;;;;;;;;;;5012749;28;20257;-77
2022/01/23 10:06:12;;;;;;;22.58;10.70;;;;;;;;;;5018295;28;20022;-77
2022/01/23 10:08:39;;;;;;;15.55;9.52;;;;;;;;;;5005898;28;20030;-77
2022/01/23 10:11:09;;;;;;;15.93;11.45;;;4.30;99.90;;;;;;5016763;28;20030;-77
2022/01/23 10:13:36;;;;;;;148.52;138.82;;;4.20;99.90;;;;;;4985040;28;20361;-77
2022/01/23 10:16:02;;;;;;;15.70;11.07;;;4.40;99.90;;;;;;5003148;28;20031;-77
2022/01/23 10:18:27;;;;;;;13.73;10.15;;;4.40;99.90;;;;;;5008442;28;20037;-77
2022/01/23 10:20:53;;;;;;;13.98;10.15;;;4.40;99.90;;;;;;4990821;28;20076;-78
2022/01/23 10:23:19;;;;;;;12.07;9.00;;;;;;;;;;5010013;28;20050;-78
2022/01/23 10:25:46;;;;;;;13.60;9.23;;;4.50;99.90;;;;;;5005861;28;20109;-76
2022/01/23 10:28:19;;;;;;;11.93;8.07;;;4.50;99.90;;;;;;5014468;28;20029;-77
2022/01/23 10:30:50;;;;;;;12.38;7.82;;;4.40;99.90;;;;;;4983922;28;20026;-77
2022/01/23 10:33:21;;;;;;;24.33;22.00;;;4.50;99.90;;;;;;5014848;28;20164;-77
2022/01/23 10:36:01;;;;;;;170.02;159.95;;;;;;;;;;4982492;28;20026;-77
2022/01/23 10:38:33;;;;;;;9.82;7.75;;;4.60;99.90;;;;;;4995095;28;20038;-77
2022/01/23 10:41:44;;;;;;;8.35;6.85;;;4.60;99.90;;;;;;4995852;28;20456;-77
2022/01/23 10:47:29;;;;;;;8.85;7.43;;;4.60;99.90;;;;;;4997049;28;20049;-77
2022/01/23 10:49:58;;;;;;;8.88;6.68;;;4.60;99.90;;;;;;5006300;28;20113;-77
2022/01/23 10:52:47;;;;;;;8.80;6.88;;;4.60;99.90;;;;;;4993084;28;20026;-77
2022/01/23 10:55:13;;;;;;;8.10;6.35;;;4.50;99.90;;;;;;5009341;28;20018;-78
2022/01/23 10:57:43;;;;;;;6.88;5.95;;;4.50;99.90;;;;;;4985766;28;20029;-77
2022/01/23 11:00:31;;;;;;;6.85;5.55;;;4.50;99.90;;;;;;5000846;28;20030;-77
2022/01/23 11:02:59;;;;;;;6.80;6.03;;;4.50;99.90;;;;;;5003347;28;20026;-77
2022/01/23 11:05:39;;;;;;;5.78;5.28;;;4.50;99.90;;;;;;4990077;28;20026;-77
2022/01/23 11:08:30;;;;;;;8.18;5.78;;;4.60;99.90;;;;;;5007875;28;20098;-77
2022/01/23 11:11:07;;;;;;;6.22;5.32;;;4.70;99.90;;;;;;4986529;28;20022;-77
2022/01/23 11:19:39;;;;;;;5.75;4.90;;;4.90;99.90;;;;;;5007283;28;20037;-77
2022/01/23 11:22:06;;;;;;;6.85;5.20;;;4.90;99.90;;;;;;5002131;28;20030;-77
2022/01/23 11:24:36;;;;;;;14.65;11.40;;;4.80;99.90;;;;;;5000732;28;20022;-77
2022/01/23 11:27:03;;;;;;;7.57;6.63;;;4.70;99.90;;;;;;5005257;28;20042;-76
2022/01/23 11:29:30;;;;;;;7.47;5.55;;;4.80;99.90;;;;;;5007170;28;20029;-77
2022/01/23 11:31:57;;;;;;;6.53;5.65;;;4.80;99.90;;;;;;4985422;28;20051;-76
2022/01/23 11:34:24;;;;;;;8.82;5.45;;;;;;;;;;4984702;28;20022;-76
2022/01/23 11:36:51;;;;;;;5.03;4.53;;;5.50;99.90;;;;;;5005126;28;20030;-77
2022/01/23 11:39:35;;;;;;;8.55;4.97;;;;;;;;;;5006413;28;20033;-76
2022/01/23 11:56:25;;;;;;;6.47;4.55;;;5.20;99.90;;;;;;5002739;28;20053;-77
2022/01/23 11:59:09;;;;;;;5.32;4.15;;;5.20;99.90;;;;;;5008615;28;20037;-77
2022/01/23 12:04:06;;;;;;;5.35;3.88;;;5.10;99.90;;;;;;5059499;28;20388;-76
2022/01/23 12:06:32;;;;;;;5.30;4.45;;;4.90;99.90;;;;;;5053493;28;20107;-77
2022/01/23 12:09:13;;;;;;;4.78;3.03;;;5.10;99.90;;;;;;5034397;28;20498;-77
2022/01/23 12:17:00;;;;;;;6.05;5.45;;;5.10;99.90;;;;;;5034174;28;20030;-75
2022/01/23 12:22:32;;;;;;;327.63;307.10;;;5.00;99.90;;;;;;5069318;28;20414;-76
2022/01/23 12:25:05;;;;;;;2.70;2.50;;;4.90;99.90;;;;;;5069559;28;20032;-78
2022/01/23 12:27:31;;;;;;;2.63;1.40;;;;;;;;;;5068769;28;20029;-76
2022/01/23 12:30:23;;;;;;;2.63;2.42;;;4.90;99.90;;;;;;5062002;28;20017;-76
2022/01/23 12:33:12;;;;;;;2.75;2.42;;;4.90;99.90;;;;;;5048111;28;20021;-76
2022/01/23 12:35:40;;;;;;;1.50;1.30;;;4.90;99.90;;;;;;5062221;28;20676;-76
2022/01/23 12:38:09;;;;;;;2.25;1.63;;;5.00;99.90;;;;;;5047722;28;20040;-76
2022/01/23 12:40:36;;;;;;;1.75;1.65;;;4.60;99.90;;;;;;5060548;28;20025;-76
2022/01/23 12:43:36;;;;;;;2.22;1.95;;;4.90;99.90;;;;;;5056497;28;20052;-76
2022/01/23 12:46:05;;;;;;;2.10;1.30;;;5.10;99.90;;;;;;5050578;28;20040;-76
2022/01/23 12:48:37;;;;;;;2.50;2.05;;;;;;;;;;5048533;28;20025;-76
2022/01/23 12:51:07;;;;;;;2.33;1.50;;;4.90;99.90;;;;;;5052200;28;20031;-76
2022/01/23 12:53:43;;;;;;;2.80;1.55;;;5.20;99.90;;;;;;5068250;28;20063;-77
2022/01/23 12:56:12;;;;;;;3.42;2.33;;;4.80;99.90;;;;;;5060101;28;20021;-77
2022/01/23 12:58:38;;;;;;;4.25;3.35;;;4.90;99.90;;;;;;5064038;28;20091;-76
2022/01/23 13:01:07;;;;;;;4.70;4.20;;;4.80;99.90;;;;;;5059492;28;20040;-77
2022/01/23 13:03:34;;;;;;;4.60;4.10;;;;;;;;;;5064806;28;20029;-76
2022/01/23 13:06:01;;;;;;;5.78;4.03;;;;;;;;;;5068474;28;20491;-77
2022/01/23 13:08:31;;;;;;;5.35;3.58;;;;;;;;;;5068191;28;20025;-76
2022/01/23 13:16:20;;;;;;;7.22;4.15;;;4.90;99.90;;;;;;5059372;28;20021;-77
2022/01/23 13:18:50;;;;;;;18.38;11.48;;;;;;;;;;5054847;28;20025;-77
2022/01/23 13:32:21;;;;;;;4.30;2.38;;;;;;;;;;5059750;28;20044;-77
2022/01/23 13:34:49;;;;;;;12.30;10.48;;;;;;;;;;5097968;28;20042;-76
2022/01/23 13:40:25;;;;;;;4.20;2.42;;;4.90;99.90;;;;;;5047950;28;20415;-77
2022/01/23 13:48:50;;;;;;;8.82;2.88;;;5.00;99.90;;;;;;5039430;28;20048;-77
2022/01/23 13:59:21;;;;;;;8.88;3.38;;;;;;;;;;5026180;28;20195;-77
2022/01/23 14:02:09;;;;;;;1.75;1.58;;;4.80;99.90;;;;;;5037868;28;20053;-79
2022/01/23 14:04:38;;;;;;;5.53;1.90;;;4.90;99.90;;;;;;5037282;28;20030;-77
2022/01/23 14:07:04;;;;;;;1.95;1.75;;;4.80;99.90;;;;;;5047663;28;20025;-76
2022/01/23 14:09:37;;;;;;;1.50;1.40;;;4.80;99.90;;;;;;5035413;28;20109;-76
2022/01/23 14:12:11;;;;;;;2.00;1.80;;;4.80;99.90;;;;;;5041935;28;20045;-77
2022/01/23 14:14:49;;;;;;;1.52;1.42;;;4.80;99.90;;;;;;5040943;28;20025;-77
2022/01/23 14:17:15;;;;;;;1.67;1.30;;;4.70;99.90;;;;;;5027430;28;20053;-76
2022/01/23 14:19:41;;;;;;;2.92;1.50;;;4.60;99.90;;;;;;5041861;28;20071;-75
2022/01/23 14:22:06;;;;;;;1.88;1.27;;;4.60;99.90;;;;;;5028224;28;20054;-75
2022/01/23 14:24:35;;;;;;;2.00;1.20;;;4.60;99.90;;;;;;5029167;28;20049;-76
2022/01/23 14:27:07;;;;;;;1.70;1.40;;;4.60;99.90;;;;;;5048171;28;20033;-75
2022/01/23 14:29:46;;;;;;;2.70;1.98;;;4.60;99.90;;;;;;5035018;28;20036;-79
2022/01/23 14:32:19;;;;;;;62.92;59.00;;;;;;;;;;5038549;28;20124;-79
2022/01/23 14:34:45;;;;;;;24.92;19.88;;;;;;;;;;5029868;28;20065;-79
2022/01/23 14:37:11;;;;;;;2.28;1.98;;;;;;;;;;5031059;28;20029;-79
2022/01/23 14:39:37;;;;;;;3.20;2.03;;;4.60;99.90;;;;;;5048696;28;20033;-79
2022/01/23 14:42:15;;;;;;;2.45;1.90;;;4.60;99.90;;;;;;5049450;28;20025;-80
2022/01/23 14:44:42;;;;;;;4.22;3.83;;;4.60;99.90;;;;;;5038335;28;20025;-79
2022/01/23 14:47:09;;;;;;;4.30;2.85;;;;;;;;;;5037860;28;20049;-78
2022/01/23 14:49:36;;;;;;;3.15;1.80;;;4.60;99.90;;;;;;5047286;28;20391;-79
2022/01/23 14:52:03;;;;;;;25.15;22.98;;;;;;;;;;5035761;28;20022;-79
2022/01/23 14:54:32;;;;;;;9.45;4.68;;;;;;;;;;5036463;28;20185;-77
2022/01/23 14:57:06;;;;;;;5.43;3.65;;;4.60;99.90;;;;;;5020300;28;20018;-77
2022/01/23 14:59:32;;;;;;;16.45;11.27;;;;;;;;;;5026072;28;20561;-77
2022/01/23 15:02:00;;;;;;;7.43;3.45;;;4.50;99.90;;;;;;5016262;28;20480;-76
2022/01/23 15:04:26;;;;;;;18.50;10.45;;;;;;;;;;5013253;28;20061;-76
2022/01/23 15:06:52;;;;;;;13.27;5.88;;;;;;;;;;5014444;28;20045;-76
2022/01/23 15:09:19;;;;;;;9.38;3.95;;;;;;;;;;5014446;28;20034;-76
2022/01/23 15:11:45;;;;;;;5.78;4.53;;;4.50;99.90;;;;;;5013120;28;20362;-76
2022/01/23 15:14:11;;;;;;;5.13;3.60;;;4.50;99.90;;;;;;5024723;28;20021;-76
2022/01/23 15:16:38;;;;;;;18.13;9.48;;;4.50;99.90;;;;;;5030433;28;20025;-75
2022/01/23 15:19:05;;;;;;;11.88;5.10;;;;;;;;;;5024367;28;20054;-76
2022/01/23 15:21:31;;;;;;;13.50;4.93;;;;;;;;;;5029835;28;20053;-76
2022/01/23 15:23:57;;;;;;;9.00;4.53;;;;;;;;;;5014217;28;20098;-76
2022/01/23 15:26:24;;;;;;;10.40;3.85;;;;;;;;;;5031127;28;20021;-76
2022/01/23 15:28:50;;;;;;;14.98;5.13;;;;;;;;;;5023173;28;20026;-76
2022/01/23 15:31:16;;;;;;;11.18;3.58;;;;;;;;;;5013755;28;20076;-76
2022/01/23 15:33:42;;;;;;;11.77;5.50;;;;;;;;;;5025210;28;20476;-77
2022/01/23 15:36:08;;;;;;;7.10;2.95;;;;;;;;;;5031418;28;20480;-77
2022/01/23 15:38:36;;;;;;;3.75;2.58;;;;;;;;;;5024874;28;20059;-77
2022/01/23 15:41:02;;;;;;;2.67;2.28;;;;;;;;;;5033596;28;20483;-77
2022/01/23 15:43:28;;;;;;;4.65;3.03;;;;;;;;;;5033917;28;20030;-77
2022/01/23 15:45:54;;;;;;;3.33;2.67;;;;;;;;;;5032930;28;20081;-77
2022/01/23 15:48:20;;;;;;;9.65;4.20;;;;;;;;;;5034998;28;20033;-77
2022/01/23 15:50:46;;;;;;;3.08;2.70;;;4.30;99.90;;;;;;5016890;28;20535;-76
2022/01/23 15:53:11;;;;;;;3.08;2.53;;;4.30;99.90;;;;;;5025951;28;20029;-77
2022/01/23 15:55:37;;;;;;;24.35;6.13;;;;;;;;;;5028522;28;20026;-77
2022/01/23 15:58:04;;;;;;;5.30;2.35;;;;;;;;;;5013378;28;20447;-76
2022/01/23 16:00:31;;;;;;;7.07;3.55;;;;;;;;;;5031160;28;20096;-79
2022/01/23 16:02:57;;;;;;;5.28;2.55;;;;;;;;;;5034052;28;20052;-77
2022/01/23 16:05:23;;;;;;;3.20;1.70;;;4.30;99.90;;;;;;5017096;28;20025;-77
2022/01/23 16:07:49;;;;;;;5.45;2.40;;;;;;;;;;5027012;28;20025;-77
2022/01/23 16:10:15;;;;;;;4.22;2.67;;;;;;;;;;5016409;28;20079;-76
2022/01/23 16:12:42;;;;;;;3.70;2.25;;;;;;;;;;5023735;28;20037;-75
2022/01/23 16:15:14;;;;;;;5.07;2.30;;;4.30;99.90;;;;;;5032943;28;20029;-76
2022/01/23 16:17:40;;;;;;;2.25;2.00;;;4.30;99.90;;;;;;5036994;28;20494;-74
2022/01/23 16:20:08;;;;;;;3.00;2.13;;;4.30;99.90;;;;;;5041687;28;20060;-75
2022/01/23 16:22:33;;;;;;;2.17;1.95;;;4.20;99.90;;;;;;5038759;28;20017;-75
2022/01/23 16:24:59;;;;;;;3.47;2.40;;;4.20;99.90;;;;;;5038976;28;20038;-77
2022/01/23 16:27:25;;;;;;;4.45;2.60;;;;;;;;;;5034833;28;20017;-75
2022/01/23 16:29:51;;;;;;;6.50;3.55;;;;;;;;;;5032904;28;20522;-77
2022/01/23 16:32:17;;;;;;;3.70;2.38;;;;;;;;;;5029185;28;20033;-77
2022/01/23 16:34:43;;;;;;;4.07;2.50;;;;;;;;;;5033479;28;20021;-77
2022/01/23 16:37:10;;;;;;;2.80;2.40;;;;;;;;;;5041019;28;20036;-77
2022/01/23 16:39:36;;;;;;;2.58;2.15;;;;;;;;;;5034749;28;20048;-77
2022/01/23 16:42:02;;;;;;;2.38;1.80;;;;;;;;;;5042694;28;20479;-77
2022/01/23 16:44:28;;;;;;;2.15;1.95;;;;;;;;;;5044845;28;20013;-77
2022/01/23 16:46:54;;;;;;;3.10;2.45;;;;;;;;;;5037988;28;20017;-77
2022/01/23 16:49:21;;;;;;;3.58;2.55;;;;;;;;;;5034706;28;20040;-77
2022/01/23 16:51:47;;;;;;;3.80;2.38;;;;;;;;;;5042679;28;20017;-77